sensor_id;sensor_type;location;lat;lon;timestamp;pressure;altitude;pressure_sealevel;temperature;humidity
78064;BME280;67429;51.596;-3.264;2023-09-30T00:01:59;100431.13;;;16.38;50.46
78064;BME280;67429;51.596;-3.264;2023-09-30T00:04:25;100422.65;;;16.06;51.21
78064;BME280;67429;51.596;-3.264;2023-09-30T00:06:50;100419.64;;;15.83;51.58
78064;BME280;67429;51.596;-3.264;2023-09-30T00:09:15;100421.15;;;15.68;52.02
78064;BME280;67429;51.596;-3.264;2023-09-30T00:11:41;100421.68;;;16.03;51.35
78064;BME280;67429;51.596;-3.264;2023-09-30T00:14:06;100411.75;;;15.89;51.48
78064;BME280;67429;51.596;-3.264;2023-09-30T00:16:32;100414.65;;;16.52;51.48
78064;BME280;67429;51.596;-3.264;2023-09-30T00:18:57;100414.90;;;16.06;51.40
78064;BME280;67429;51.596;-3.264;2023-09-30T00:21:24;100416.47;;;16.08;51.48
78064;BME280;67429;51.596;-3.264;2023-09-30T00:23:48;100416.66;;;16.20;50.96
78064;BME280;67429;51.596;-3.264;2023-09-30T00:26:14;100415.73;;;15.69;51.32
78064;BME280;67429;51.596;-3.264;2023-09-30T00:28:39;100415.72;;;16.14;51.11
78064;BME280;67429;51.596;-3.264;2023-09-30T00:31:07;100414.01;;;15.81;51.11
78064;BME280;67429;51.596;-3.264;2023-09-30T00:33:30;100417.13;;;15.81;51.11
78064;BME280;67429;51.596;-3.264;2023-09-30T00:35:57;100424.33;;;16.54;50.47
78064;BME280;67429;51.596;-3.264;2023-09-30T00:38:21;100428.10;;;16.39;50.31
78064;BME280;67429;51.596;-3.264;2023-09-30T00:40:47;100429.92;;;16.42;50.21
78064;BME280;67429;51.596;-3.264;2023-09-30T00:43:18;100421.19;;;16.45;51.03
78064;BME280;67429;51.596;-3.264;2023-09-30T00:45:39;100420.37;;;16.10;51.55
78064;BME280;67429;51.596;-3.264;2023-09-30T00:48:04;100422.73;;;16.12;51.63
78064;BME280;67429;51.596;-3.264;2023-09-30T00:50:29;100422.16;;;16.21;50.58
78064;BME280;67429;51.596;-3.264;2023-09-30T00:52:55;100416.98;;;16.32;51.05
78064;BME280;67429;51.596;-3.264;2023-09-30T00:55:22;100412.93;;;16.30;50.54
78064;BME280;67429;51.596;-3.264;2023-09-30T00:57:46;100409.18;;;16.45;50.66
78064;BME280;67429;51.596;-3.264;2023-09-30T01:00:12;100409.23;;;15.92;51.24
78064;BME280;67429;51.596;-3.264;2023-09-30T01:02:37;100413.07;;;16.08;51.50
78064;BME280;67429;51.596;-3.264;2023-09-30T01:05:04;100402.14;;;16.10;51.54
78064;BME280;67429;51.596;-3.264;2023-09-30T01:07:28;100399.01;;;15.97;50.85
78064;BME280;67429;51.596;-3.264;2023-09-30T01:09:53;100395.22;;;15.70;51.35
78064;BME280;67429;51.596;-3.264;2023-09-30T01:12:19;100388.55;;;15.45;52.07
78064;BME280;67429;51.596;-3.264;2023-09-30T01:14:44;100391.25;;;15.94;51.88
78064;BME280;67429;51.596;-3.264;2023-09-30T01:17:10;100393.53;;;15.35;52.54
78064;BME280;67429;51.596;-3.264;2023-09-30T01:19:36;100396.81;;;15.72;52.29
78064;BME280;67429;51.596;-3.264;2023-09-30T01:22:01;100400.62;;;15.48;51.83
78064;BME280;67429;51.596;-3.264;2023-09-30T01:24:27;100403.01;;;15.85;51.61
78064;BME280;67429;51.596;-3.264;2023-09-30T01:26:52;100402.66;;;15.71;51.80
78064;BME280;67429;51.596;-3.264;2023-09-30T01:29:18;100407.98;;;15.30;52.72
78064;BME280;67429;51.596;-3.264;2023-09-30T01:31:43;100406.73;;;15.31;52.15
78064;BME280;67429;51.596;-3.264;2023-09-30T01:34:09;100400.48;;;15.51;52.38
78064;BME280;67429;51.596;-3.264;2023-09-30T01:36:35;100403.74;;;15.42;52.47
78064;BME280;67429;51.596;-3.264;2023-09-30T01:39:00;100408.97;;;15.68;52.41
78064;BME280;67429;51.596;-3.264;2023-09-30T01:41:26;100407.44;;;15.80;51.86
78064;BME280;67429;51.596;-3.264;2023-09-30T01:43:51;100397.06;;;15.44;51.81
78064;BME280;67429;51.596;-3.264;2023-09-30T01:46:17;100390.53;;;15.59;51.99
78064;BME280;67429;51.596;-3.264;2023-09-30T01:48:43;100382.67;;;15.58;51.89
78064;BME280;67429;51.596;-3.264;2023-09-30T01:51:09;100378.92;;;15.57;51.69
78064;BME280;67429;51.596;-3.264;2023-09-30T01:53:34;100383.41;;;15.33;51.97
78064;BME280;67429;51.596;-3.264;2023-09-30T01:56:00;100384.26;;;15.01;52.47
78064;BME280;67429;51.596;-3.264;2023-09-30T01:58:25;100376.55;;;15.36;51.82
78064;BME280;67429;51.596;-3.264;2023-09-30T02:00:51;100369.81;;;15.04;51.90
78064;BME280;67429;51.596;-3.264;2023-09-30T02:03:16;100371.10;;;15.17;52.34
78064;BME280;67429;51.596;-3.264;2023-09-30T02:05:42;100365.34;;;15.38;52.98
78064;BME280;67429;51.596;-3.264;2023-09-30T02:08:08;100360.01;;;15.38;53.69
78064;BME280;67429;51.596;-3.264;2023-09-30T02:10:33;100367.47;;;15.24;53.99
78064;BME280;67429;51.596;-3.264;2023-09-30T02:12:59;100372.09;;;15.48;53.75
78064;BME280;67429;51.596;-3.264;2023-09-30T02:15:24;100369.40;;;15.48;53.28
78064;BME280;67429;51.596;-3.264;2023-09-30T02:17:50;100364.04;;;15.57;53.01
78064;BME280;67429;51.596;-3.264;2023-09-30T02:20:16;100370.18;;;15.78;52.20
78064;BME280;67429;51.596;-3.264;2023-09-30T02:22:41;100369.70;;;15.99;52.34
78064;BME280;67429;51.596;-3.264;2023-09-30T02:25:07;100370.89;;;15.51;52.16
78064;BME280;67429;51.596;-3.264;2023-09-30T02:27:32;100370.67;;;15.81;51.78
78064;BME280;67429;51.596;-3.264;2023-09-30T02:29:57;100363.78;;;15.54;51.93
78064;BME280;67429;51.596;-3.264;2023-09-30T02:32:23;100366.28;;;15.30;51.99
78064;BME280;67429;51.596;-3.264;2023-09-30T02:34:48;100368.04;;;15.14;52.43
78064;BME280;67429;51.596;-3.264;2023-09-30T02:37:14;100366.10;;;15.54;51.21
78064;BME280;67429;51.596;-3.264;2023-09-30T02:39:39;100364.91;;;15.39;51.49
78064;BME280;67429;51.596;-3.264;2023-09-30T02:42:05;100364.29;;;13.72;58.47
78064;BME280;67429;51.596;-3.264;2023-09-30T02:44:30;100361.53;;;14.94;54.92
78064;BME280;67429;51.596;-3.264;2023-09-30T02:46:56;100352.58;;;15.47;54.20
78064;BME280;67429;51.596;-3.264;2023-09-30T02:49:21;100356.14;;;15.00;53.38
78064;BME280;67429;51.596;-3.264;2023-09-30T02:51:47;100356.56;;;15.29;53.25
78064;BME280;67429;51.596;-3.264;2023-09-30T02:54:14;100347.12;;;15.48;53.09
78064;BME280;67429;51.596;-3.264;2023-09-30T02:56:38;100343.84;;;15.62;52.97
78064;BME280;67429;51.596;-3.264;2023-09-30T02:59:03;100337.37;;;15.37;54.69
78064;BME280;67429;51.596;-3.264;2023-09-30T03:01:29;100327.82;;;15.62;54.23
78064;BME280;67429;51.596;-3.264;2023-09-30T03:03:55;100325.63;;;15.61;54.34
78064;BME280;67429;51.596;-3.264;2023-09-30T03:06:25;100324.56;;;15.86;54.46
78064;BME280;67429;51.596;-3.264;2023-09-30T03:08:46;100316.46;;;15.50;53.71
78064;BME280;67429;51.596;-3.264;2023-09-30T03:11:11;100310.74;;;15.19;55.37
78064;BME280;67429;51.596;-3.264;2023-09-30T03:13:36;100315.56;;;15.28;56.15
78064;BME280;67429;51.596;-3.264;2023-09-30T03:16:02;100319.96;;;15.50;54.58
78064;BME280;67429;51.596;-3.264;2023-09-30T03:18:30;100321.23;;;15.79;54.37
78064;BME280;67429;51.596;-3.264;2023-09-30T03:20:59;100324.25;;;15.80;53.96
78064;BME280;67429;51.596;-3.264;2023-09-30T03:23:20;100327.56;;;16.26;53.51
78064;BME280;67429;51.596;-3.264;2023-09-30T03:25:45;100336.53;;;15.84;52.68
78064;BME280;67429;51.596;-3.264;2023-09-30T03:28:10;100328.48;;;15.99;52.94
78064;BME280;67429;51.596;-3.264;2023-09-30T03:30:36;100322.20;;;15.49;53.84
78064;BME280;67429;51.596;-3.264;2023-09-30T03:33:02;100327.14;;;15.59;54.09
78064;BME280;67429;51.596;-3.264;2023-09-30T03:35:29;100335.62;;;16.14;53.91
78064;BME280;67429;51.596;-3.264;2023-09-30T03:37:53;100338.41;;;15.71;53.67
78064;BME280;67429;51.596;-3.264;2023-09-30T03:40:18;100337.51;;;15.95;52.28
78064;BME280;67429;51.596;-3.264;2023-09-30T03:42:45;100327.63;;;15.98;52.10
78064;BME280;67429;51.596;-3.264;2023-09-30T03:45:10;100313.44;;;16.10;52.39
78064;BME280;67429;51.596;-3.264;2023-09-30T03:47:36;100307.71;;;16.41;52.61
78064;BME280;67429;51.596;-3.264;2023-09-30T03:50:01;100302.24;;;16.24;52.65
78064;BME280;67429;51.596;-3.264;2023-09-30T03:52:26;100307.73;;;16.16;53.16
78064;BME280;67429;51.596;-3.264;2023-09-30T03:54:52;100312.67;;;15.98;53.02
78064;BME280;67429;51.596;-3.264;2023-09-30T03:57:17;100318.99;;;15.55;53.06
78064;BME280;67429;51.596;-3.264;2023-09-30T03:59:42;100322.08;;;15.81;52.53
78064;BME280;67429;51.596;-3.264;2023-09-30T04:02:08;100321.40;;;15.95;52.51
78064;BME280;67429;51.596;-3.264;2023-09-30T04:04:34;100318.18;;;16.01;52.21
78064;BME280;67429;51.596;-3.264;2023-09-30T04:06:59;100310.68;;;15.64;52.09
78064;BME280;67429;51.596;-3.264;2023-09-30T04:09:25;100309.73;;;16.28;52.13
78064;BME280;67429;51.596;-3.264;2023-09-30T04:11:50;100306.44;;;15.76;52.08
78064;BME280;67429;51.596;-3.264;2023-09-30T04:14:16;100302.66;;;16.09;52.49
78064;BME280;67429;51.596;-3.264;2023-09-30T04:16:41;100304.58;;;15.73;52.45
78064;BME280;67429;51.596;-3.264;2023-09-30T04:19:07;100307.47;;;15.65;52.43
78064;BME280;67429;51.596;-3.264;2023-09-30T04:21:33;100307.34;;;15.41;52.29
78064;BME280;67429;51.596;-3.264;2023-09-30T04:23:58;100301.78;;;15.66;51.87
78064;BME280;67429;51.596;-3.264;2023-09-30T04:26:24;100290.59;;;14.47;55.19
78064;BME280;67429;51.596;-3.264;2023-09-30T04:28:50;100290.29;;;15.12;53.46
78064;BME280;67429;51.596;-3.264;2023-09-30T04:31:15;100300.43;;;14.55;54.23
78064;BME280;67429;51.596;-3.264;2023-09-30T04:33:40;100299.95;;;14.71;53.00
78064;BME280;67429;51.596;-3.264;2023-09-30T04:36:06;100298.81;;;14.60;53.69
78064;BME280;67429;51.596;-3.264;2023-09-30T04:38:32;100299.28;;;14.56;54.35
78064;BME280;67429;51.596;-3.264;2023-09-30T04:40:57;100299.66;;;14.38;55.33
78064;BME280;67429;51.596;-3.264;2023-09-30T04:43:23;100305.83;;;14.42;56.19
78064;BME280;67429;51.596;-3.264;2023-09-30T04:45:49;100308.25;;;14.44;55.17
78064;BME280;67429;51.596;-3.264;2023-09-30T04:48:14;100314.58;;;14.27;54.63
78064;BME280;67429;51.596;-3.264;2023-09-30T04:50:41;100332.04;;;14.52;55.29
78064;BME280;67429;51.596;-3.264;2023-09-30T04:53:05;100339.26;;;14.81;55.85
78064;BME280;67429;51.596;-3.264;2023-09-30T04:55:31;100345.65;;;14.69;55.37
78064;BME280;67429;51.596;-3.264;2023-09-30T04:57:56;100342.09;;;14.97;54.56
78064;BME280;67429;51.596;-3.264;2023-09-30T05:00:23;100323.69;;;14.35;56.48
78064;BME280;67429;51.596;-3.264;2023-09-30T05:02:47;100321.96;;;14.72;55.16
78064;BME280;67429;51.596;-3.264;2023-09-30T05:05:14;100329.69;;;14.99;55.05
78064;BME280;67429;51.596;-3.264;2023-09-30T05:07:38;100335.80;;;14.62;54.37
78064;BME280;67429;51.596;-3.264;2023-09-30T05:10:05;100336.93;;;14.48;54.48
78064;BME280;67429;51.596;-3.264;2023-09-30T05:12:30;100335.33;;;14.77;53.75
78064;BME280;67429;51.596;-3.264;2023-09-30T05:14:55;100341.12;;;14.89;53.49
78064;BME280;67429;51.596;-3.264;2023-09-30T05:17:21;100338.96;;;14.83;52.27
78064;BME280;67429;51.596;-3.264;2023-09-30T05:19:47;100335.70;;;14.98;52.76
78064;BME280;67429;51.596;-3.264;2023-09-30T05:22:12;100341.06;;;14.58;53.07
78064;BME280;67429;51.596;-3.264;2023-09-30T05:24:38;100329.94;;;14.40;52.52
78064;BME280;67429;51.596;-3.264;2023-09-30T05:27:03;100317.36;;;14.30;53.91
78064;BME280;67429;51.596;-3.264;2023-09-30T05:29:29;100308.99;;;13.99;56.50
78064;BME280;67429;51.596;-3.264;2023-09-30T05:31:54;100309.15;;;14.04;56.29
78064;BME280;67429;51.596;-3.264;2023-09-30T05:34:20;100312.20;;;14.32;55.15
78064;BME280;67429;51.596;-3.264;2023-09-30T05:36:47;100308.46;;;14.41;54.75
78064;BME280;67429;51.596;-3.264;2023-09-30T05:39:11;100320.06;;;14.58;54.68
78064;BME280;67429;51.596;-3.264;2023-09-30T05:41:37;100324.09;;;14.60;54.19
78064;BME280;67429;51.596;-3.264;2023-09-30T05:44:03;100317.37;;;14.25;54.87
78064;BME280;67429;51.596;-3.264;2023-09-30T05:46:28;100318.88;;;14.69;53.70
78064;BME280;67429;51.596;-3.264;2023-09-30T05:48:53;100317.25;;;14.88;53.63
78064;BME280;67429;51.596;-3.264;2023-09-30T05:51:19;100309.87;;;14.92;53.46
78064;BME280;67429;51.596;-3.264;2023-09-30T05:53:45;100309.54;;;14.92;53.59
78064;BME280;67429;51.596;-3.264;2023-09-30T05:56:10;100318.34;;;14.75;53.73
78064;BME280;67429;51.596;-3.264;2023-09-30T05:58:36;100327.25;;;14.71;53.92
78064;BME280;67429;51.596;-3.264;2023-09-30T06:01:02;100335.44;;;14.25;54.07
78064;BME280;67429;51.596;-3.264;2023-09-30T06:03:27;100343.72;;;14.45;53.16
78064;BME280;67429;51.596;-3.264;2023-09-30T06:05:53;100344.90;;;14.59;53.14
78064;BME280;67429;51.596;-3.264;2023-09-30T06:08:18;100340.22;;;14.85;53.20
78064;BME280;67429;51.596;-3.264;2023-09-30T06:10:44;100327.95;;;14.61;52.66
78064;BME280;67429;51.596;-3.264;2023-09-30T06:13:10;100315.79;;;14.58;52.95
78064;BME280;67429;51.596;-3.264;2023-09-30T06:15:37;100314.93;;;13.60;56.65
78064;BME280;67429;51.596;-3.264;2023-09-30T06:18:01;100318.57;;;13.95;56.14
78064;BME280;67429;51.596;-3.264;2023-09-30T06:20:27;100322.03;;;13.66;55.24
78064;BME280;67429;51.596;-3.264;2023-09-30T06:22:52;100324.40;;;14.16;54.18
78064;BME280;67429;51.596;-3.264;2023-09-30T06:25:18;100324.39;;;14.64;53.93
78064;BME280;67429;51.596;-3.264;2023-09-30T06:27:43;100324.08;;;14.30;53.75
78064;BME280;67429;51.596;-3.264;2023-09-30T06:30:10;100325.18;;;14.53;53.42
78064;BME280;67429;51.596;-3.264;2023-09-30T06:32:34;100329.57;;;14.75;53.85
78064;BME280;67429;51.596;-3.264;2023-09-30T06:35:00;100333.45;;;14.73;53.72
78064;BME280;67429;51.596;-3.264;2023-09-30T06:37:25;100320.92;;;13.93;55.83
78064;BME280;67429;51.596;-3.264;2023-09-30T06:39:51;100318.05;;;14.64;55.92
78064;BME280;67429;51.596;-3.264;2023-09-30T06:42:16;100333.02;;;15.14;55.17
78064;BME280;67429;51.596;-3.264;2023-09-30T06:44:42;100341.86;;;14.35;55.93
78064;BME280;67429;51.596;-3.264;2023-09-30T06:47:09;100348.14;;;14.58;55.32
78064;BME280;67429;51.596;-3.264;2023-09-30T06:49:34;100342.93;;;14.90;54.53
78064;BME280;67429;51.596;-3.264;2023-09-30T06:51:59;100335.49;;;14.55;56.49
78064;BME280;67429;51.596;-3.264;2023-09-30T06:54:25;100340.42;;;15.07;55.37
78064;BME280;67429;51.596;-3.264;2023-09-30T06:56:50;100332.11;;;15.11;55.02
78064;BME280;67429;51.596;-3.264;2023-09-30T06:59:15;100324.97;;;15.50;54.08
78064;BME280;67429;51.596;-3.264;2023-09-30T07:01:41;100323.19;;;15.72;54.29
78064;BME280;67429;51.596;-3.264;2023-09-30T07:04:07;100317.15;;;16.27;53.95
78064;BME280;67429;51.596;-3.264;2023-09-30T07:06:32;100323.71;;;16.18;53.28
78064;BME280;67429;51.596;-3.264;2023-09-30T07:08:58;100321.27;;;16.28;53.75
78064;BME280;67429;51.596;-3.264;2023-09-30T07:11:28;100321.46;;;16.41;54.16
78064;BME280;67429;51.596;-3.264;2023-09-30T07:13:49;100323.96;;;16.61;52.59
78064;BME280;67429;51.596;-3.264;2023-09-30T07:16:16;100324.24;;;16.86;53.66
78064;BME280;67429;51.596;-3.264;2023-09-30T07:18:40;100319.00;;;17.26;51.65
78064;BME280;67429;51.596;-3.264;2023-09-30T07:21:05;100325.30;;;17.39;51.59
78064;BME280;67429;51.596;-3.264;2023-09-30T07:23:31;100329.08;;;16.94;50.63
78064;BME280;67429;51.596;-3.264;2023-09-30T07:25:56;100327.44;;;17.62;53.19
78064;BME280;67429;51.596;-3.264;2023-09-30T07:28:22;100331.93;;;17.68;51.55
78064;BME280;67429;51.596;-3.264;2023-09-30T07:30:48;100334.82;;;17.65;49.93
78064;BME280;67429;51.596;-3.264;2023-09-30T07:33:13;100339.60;;;17.44;50.48
78064;BME280;67429;51.596;-3.264;2023-09-30T07:35:39;100341.07;;;17.64;50.33
78064;BME280;67429;51.596;-3.264;2023-09-30T07:38:04;100337.99;;;18.21;51.38
78064;BME280;67429;51.596;-3.264;2023-09-30T07:40:29;100332.74;;;17.33;51.30
78064;BME280;67429;51.596;-3.264;2023-09-30T07:42:56;100336.07;;;17.69;50.75
78064;BME280;67429;51.596;-3.264;2023-09-30T07:45:21;100344.15;;;17.56;51.44
78064;BME280;67429;51.596;-3.264;2023-09-30T07:47:46;100346.39;;;17.60;50.42
78064;BME280;67429;51.596;-3.264;2023-09-30T07:50:12;100335.80;;;17.65;50.22
78064;BME280;67429;51.596;-3.264;2023-09-30T07:52:37;100333.39;;;18.01;50.12
78064;BME280;67429;51.596;-3.264;2023-09-30T07:55:03;100332.91;;;18.05;50.08
78064;BME280;67429;51.596;-3.264;2023-09-30T07:57:28;100335.53;;;17.80;49.77
78064;BME280;67429;51.596;-3.264;2023-09-30T07:59:54;100346.44;;;17.90;49.96
78064;BME280;67429;51.596;-3.264;2023-09-30T08:02:19;100349.58;;;17.41;50.58
78064;BME280;67429;51.596;-3.264;2023-09-30T08:04:45;100339.38;;;17.74;50.49
78064;BME280;67429;51.596;-3.264;2023-09-30T08:07:11;100337.20;;;17.69;50.55
78064;BME280;67429;51.596;-3.264;2023-09-30T08:09:36;100331.96;;;16.74;52.22
78064;BME280;67429;51.596;-3.264;2023-09-30T08:12:02;100321.02;;;15.47;55.79
78064;BME280;67429;51.596;-3.264;2023-09-30T08:14:27;100322.04;;;16.10;55.73
78064;BME280;67429;51.596;-3.264;2023-09-30T08:16:53;100327.99;;;15.95;55.89
78064;BME280;67429;51.596;-3.264;2023-09-30T08:19:18;100337.62;;;16.02;55.14
78064;BME280;67429;51.596;-3.264;2023-09-30T08:21:44;100335.06;;;16.28;55.72
78064;BME280;67429;51.596;-3.264;2023-09-30T08:24:09;100329.62;;;15.82;57.51
78064;BME280;67429;51.596;-3.264;2023-09-30T08:26:35;100324.56;;;15.72;58.41
78064;BME280;67429;51.596;-3.264;2023-09-30T08:29:01;100328.94;;;13.95;62.85
78064;BME280;67429;51.596;-3.264;2023-09-30T08:31:26;100328.84;;;13.77;65.22
78064;BME280;67429;51.596;-3.264;2023-09-30T08:33:51;100338.18;;;13.30;66.94
78064;BME280;67429;51.596;-3.264;2023-09-30T08:36:17;100337.16;;;14.56;63.29
78064;BME280;67429;51.596;-3.264;2023-09-30T08:38:42;100342.64;;;14.78;63.22
78064;BME280;67429;51.596;-3.264;2023-09-30T08:41:09;100342.74;;;14.38;62.21
78064;BME280;67429;51.596;-3.264;2023-09-30T08:43:37;100337.66;;;13.87;64.92
78064;BME280;67429;51.596;-3.264;2023-09-30T08:45:59;100335.52;;;13.97;63.66
78064;BME280;67429;51.596;-3.264;2023-09-30T08:48:26;100329.95;;;14.55;62.14
78064;BME280;67429;51.596;-3.264;2023-09-30T08:50:51;100325.86;;;14.48;62.74
78064;BME280;67429;51.596;-3.264;2023-09-30T08:53:17;100319.84;;;15.39;60.96
78064;BME280;67429;51.596;-3.264;2023-09-30T08:55:41;100316.29;;;15.62;59.64
78064;BME280;67429;51.596;-3.264;2023-09-30T08:58:07;100298.36;;;15.33;60.03
78064;BME280;67429;51.596;-3.264;2023-09-30T09:00:32;100281.05;;;13.29;64.57
78064;BME280;67429;51.596;-3.264;2023-09-30T09:02:58;100299.16;;;13.70;64.04
78064;BME280;67429;51.596;-3.264;2023-09-30T09:05:23;100296.17;;;13.88;64.19
78064;BME280;67429;51.596;-3.264;2023-09-30T09:07:48;100301.82;;;15.50;61.20
78064;BME280;67429;51.596;-3.264;2023-09-30T09:10:14;100297.02;;;15.60;59.81
78064;BME280;67429;51.596;-3.264;2023-09-30T09:12:41;100302.15;;;15.72;59.44
78064;BME280;67429;51.596;-3.264;2023-09-30T09:15:06;100284.71;;;14.70;61.49
78064;BME280;67429;51.596;-3.264;2023-09-30T09:17:41;100278.19;;;13.57;64.79
78064;BME280;67429;51.596;-3.264;2023-09-30T09:19:59;100263.63;;;13.06;67.41
78064;BME280;67429;51.596;-3.264;2023-09-30T09:22:21;100263.88;;;14.33;62.77
78064;BME280;67429;51.596;-3.264;2023-09-30T09:24:48;100265.67;;;13.66;64.77
78064;BME280;67429;51.596;-3.264;2023-09-30T09:27:13;100258.23;;;14.64;62.42
78064;BME280;67429;51.596;-3.264;2023-09-30T09:29:39;100254.51;;;15.06;62.44
78064;BME280;67429;51.596;-3.264;2023-09-30T09:32:08;100251.18;;;15.16;61.75
78064;BME280;67429;51.596;-3.264;2023-09-30T09:34:29;100248.24;;;14.76;61.33
78064;BME280;67429;51.596;-3.264;2023-09-30T09:36:55;100247.51;;;15.29;61.23
78064;BME280;67429;51.596;-3.264;2023-09-30T09:39:29;100258.14;;;15.83;60.54
78064;BME280;67429;51.596;-3.264;2023-09-30T09:41:52;100263.51;;;16.68;58.13
78064;BME280;67429;51.596;-3.264;2023-09-30T09:44:11;100259.31;;;16.89;57.45
78064;BME280;67429;51.596;-3.264;2023-09-30T09:46:37;100260.78;;;16.48;56.70
78064;BME280;67429;51.596;-3.264;2023-09-30T09:49:02;100260.34;;;16.11;58.92
78064;BME280;67429;51.596;-3.264;2023-09-30T09:51:28;100260.75;;;15.64;60.02
78064;BME280;67429;51.596;-3.264;2023-09-30T09:53:53;100265.16;;;15.68;60.02
78064;BME280;67429;51.596;-3.264;2023-09-30T09:56:20;100269.81;;;15.95;59.20
78064;BME280;67429;51.596;-3.264;2023-09-30T09:58:47;100265.30;;;15.68;59.42
78064;BME280;67429;51.596;-3.264;2023-09-30T10:01:10;100261.86;;;16.03;58.83
78064;BME280;67429;51.596;-3.264;2023-09-30T10:03:35;100260.83;;;16.65;58.16
78064;BME280;67429;51.596;-3.264;2023-09-30T10:06:03;100249.25;;;14.99;62.37
78064;BME280;67429;51.596;-3.264;2023-09-30T10:08:32;100252.54;;;15.26;62.86
78064;BME280;67429;51.596;-3.264;2023-09-30T10:10:51;100260.18;;;16.05;60.97
78064;BME280;67429;51.596;-3.264;2023-09-30T10:15:43;100255.39;;;15.73;61.38
78064;BME280;67429;51.596;-3.264;2023-09-30T10:18:10;100272.28;;;16.24;58.80
78064;BME280;67429;51.596;-3.264;2023-09-30T10:20:35;100268.64;;;14.34;64.48
78064;BME280;67429;51.596;-3.264;2023-09-30T10:25:34;100243.13;;;14.54;62.23
78064;BME280;67429;51.596;-3.264;2023-09-30T10:27:50;100245.66;;;14.22;66.68
78064;BME280;67429;51.596;-3.264;2023-09-30T10:30:15;100243.79;;;15.31;63.06
78064;BME280;67429;51.596;-3.264;2023-09-30T10:35:07;100241.63;;;16.08;59.51
78064;BME280;67429;51.596;-3.264;2023-09-30T10:37:31;100244.39;;;15.21;62.03
78064;BME280;67429;51.596;-3.264;2023-09-30T10:39:58;100236.31;;;15.02;61.03
78064;BME280;67429;51.596;-3.264;2023-09-30T10:44:48;100239.44;;;14.95;61.37
78064;BME280;67429;51.596;-3.264;2023-09-30T10:49:40;100220.50;;;14.01;64.85
78064;BME280;67429;51.596;-3.264;2023-09-30T10:52:04;100221.21;;;14.12;65.43
78064;BME280;67429;51.596;-3.264;2023-09-30T10:54:30;100227.75;;;14.19;64.40
78064;BME280;67429;51.596;-3.264;2023-09-30T10:56:56;100234.32;;;13.99;65.02
78064;BME280;67429;51.596;-3.264;2023-09-30T10:59:22;100225.07;;;14.11;65.77
78064;BME280;67429;51.596;-3.264;2023-09-30T11:01:46;100215.15;;;13.00;67.61
78064;BME280;67429;51.596;-3.264;2023-09-30T11:04:12;100225.39;;;14.24;65.01
78064;BME280;67429;51.596;-3.264;2023-09-30T11:06:40;100215.86;;;14.10;64.54
78064;BME280;67429;51.596;-3.264;2023-09-30T11:09:03;100218.86;;;13.95;65.59
78064;BME280;67429;51.596;-3.264;2023-09-30T11:11:35;100206.55;;;14.40;64.49
78064;BME280;67429;51.596;-3.264;2023-09-30T11:13:54;100198.00;;;14.44;64.03
78064;BME280;67429;51.596;-3.264;2023-09-30T11:16:19;100189.81;;;14.53;63.57
78064;BME280;67429;51.596;-3.264;2023-09-30T11:18:44;100185.75;;;14.87;61.94
78064;BME280;67429;51.596;-3.264;2023-09-30T11:21:11;100187.73;;;15.36;60.96
78064;BME280;67429;51.596;-3.264;2023-09-30T11:23:36;100193.53;;;13.99;64.30
78064;BME280;67429;51.596;-3.264;2023-09-30T11:26:01;100178.56;;;14.94;62.61
78064;BME280;67429;51.596;-3.264;2023-09-30T11:28:35;100158.36;;;15.09;61.88
78064;BME280;67429;51.596;-3.264;2023-09-30T11:30:55;100169.07;;;15.29;61.74
78064;BME280;67429;51.596;-3.264;2023-09-30T11:33:17;100182.34;;;15.98;60.52
78064;BME280;67429;51.596;-3.264;2023-09-30T11:38:08;100188.08;;;15.81;59.32
78064;BME280;67429;51.596;-3.264;2023-09-30T11:40:33;100191.49;;;15.17;61.57
78064;BME280;67429;51.596;-3.264;2023-09-30T11:43:07;100185.16;;;14.93;63.23
78064;BME280;67429;51.596;-3.264;2023-09-30T11:45:25;100180.08;;;14.74;63.87
78064;BME280;67429;51.596;-3.264;2023-09-30T11:47:50;100179.22;;;14.74;62.46
78064;BME280;67429;51.596;-3.264;2023-09-30T11:50:15;100176.72;;;15.27;62.21
78064;BME280;67429;51.596;-3.264;2023-09-30T11:52:44;100180.40;;;15.17;61.48
78064;BME280;67429;51.596;-3.264;2023-09-30T11:55:07;100172.07;;;15.18;61.73
78064;BME280;67429;51.596;-3.264;2023-09-30T11:57:32;100181.67;;;15.28;60.71
78064;BME280;67429;51.596;-3.264;2023-09-30T11:59:57;100173.54;;;14.97;62.24
78064;BME280;67429;51.596;-3.264;2023-09-30T12:02:23;100168.53;;;14.53;63.00
78064;BME280;67429;51.596;-3.264;2023-09-30T12:04:48;100165.08;;;15.01;61.58
78064;BME280;67429;51.596;-3.264;2023-09-30T12:07:13;100164.97;;;14.71;62.06
78064;BME280;67429;51.596;-3.264;2023-09-30T12:09:40;100162.58;;;13.72;64.64
78064;BME280;67429;51.596;-3.264;2023-09-30T12:12:05;100163.85;;;14.62;63.12
78064;BME280;67429;51.596;-3.264;2023-09-30T12:14:29;100153.16;;;13.85;65.21
78064;BME280;67429;51.596;-3.264;2023-09-30T12:16:55;100148.57;;;13.30;66.27
78064;BME280;67429;51.596;-3.264;2023-09-30T12:19:20;100157.02;;;13.47;65.87
78064;BME280;67429;51.596;-3.264;2023-09-30T12:21:46;100156.22;;;14.02;65.34
78064;BME280;67429;51.596;-3.264;2023-09-30T12:24:13;100144.71;;;14.54;62.76
78064;BME280;67429;51.596;-3.264;2023-09-30T12:26:38;100140.86;;;13.80;63.77
78064;BME280;67429;51.596;-3.264;2023-09-30T12:29:02;100133.36;;;13.39;64.61
78064;BME280;67429;51.596;-3.264;2023-09-30T12:31:28;100126.90;;;14.76;62.71
78064;BME280;67429;51.596;-3.264;2023-09-30T12:33:55;100125.56;;;15.29;61.34
78064;BME280;67429;51.596;-3.264;2023-09-30T12:36:19;100132.94;;;15.20;60.33
78064;BME280;67429;51.596;-3.264;2023-09-30T12:38:44;100135.65;;;16.38;57.88
78064;BME280;67429;51.596;-3.264;2023-09-30T12:41:10;100129.91;;;15.51;58.80
78064;BME280;67429;51.596;-3.264;2023-09-30T12:43:35;100124.49;;;15.55;58.83
78064;BME280;67429;51.596;-3.264;2023-09-30T12:46:01;100115.48;;;14.97;59.67